Time;durP1;ratioP1;P1;durP2;ratioP2;P2;SDS_P1;SDS_P2;PMS_P1;PMS_P2;Temp;Humidity;BMP_temperature;BMP_pressure;BME280_temperature;BME280_humidity;BME280_pressure;Samples;Min_cycle;Max_cycle;Signal;HPM_P1;HPM_P2
2023/06/08 00:01:31;;;;;;;12.20;6.70;;;;;;;16.15;100.00;101652.88;5271943;28;20021;-68
2023/06/08 00:04:07;;;;;;;15.48;7.00;;;;;;;16.11;100.00;101653.25;5271706;28;20043;-68
2023/06/08 00:06:40;;;;;;;13.00;6.55;;;;;;;16.07;100.00;101652.69;5269489;28;20065;-68
2023/06/08 00:09:12;;;;;;;16.15;6.95;;;;;;;16.01;100.00;101645.13;5267764;28;20041;-68
2023/06/08 00:11:43;;;;;;;15.90;7.38;;;;;;;15.95;100.00;101653.72;5266778;28;21796;-68
2023/06/08 00:14:17;;;;;;;14.50;7.05;;;;;;;15.93;100.00;101658.41;5268835;28;20040;-68
2023/06/08 00:16:48;;;;;;;14.77;7.20;;;;;;;15.85;100.00;101646.44;5269552;28;20119;-68
2023/06/08 00:19:20;;;;;;;12.65;7.43;;;;;;;15.79;100.00;101644.28;5270956;28;20036;-68
2023/06/08 00:21:52;;;;;;;13.65;7.47;;;;;;;15.74;100.00;101648.38;5268421;28;20732;-68
2023/06/08 00:24:24;;;;;;;15.45;7.68;;;;;;;15.68;100.00;101652.41;5268782;28;20032;-68
2023/06/08 00:26:55;;;;;;;15.00;7.75;;;;;;;15.62;100.00;101643.00;5271075;28;20039;-68
2023/06/08 00:29:27;;;;;;;13.05;7.50;;;;;;;15.60;100.00;101647.66;5269070;28;20025;-68
2023/06/08 00:31:58;;;;;;;15.80;7.65;;;;;;;15.57;100.00;101641.69;5269280;28;20029;-68
2023/06/08 00:34:30;;;;;;;15.38;7.50;;;;;;;15.55;100.00;101640.97;5270634;28;20032;-68
2023/06/08 00:37:01;;;;;;;16.55;8.20;;;;;;;15.55;100.00;101638.28;5270665;28;20033;-68
2023/06/08 00:39:33;;;;;;;14.77;7.78;;;;;;;15.52;100.00;101642.09;5267405;28;20379;-68
2023/06/08 00:42:05;;;;;;;18.52;8.50;;;;;;;15.56;100.00;101642.69;5269304;28;20035;-68
2023/06/08 00:44:36;;;;;;;15.18;7.45;;;;;;;15.52;100.00;101638.56;5269949;28;20035;-68
2023/06/08 00:47:08;;;;;;;15.02;7.47;;;;;;;15.47;100.00;101637.13;5266821;28;20025;-68
2023/06/08 00:49:40;;;;;;;14.93;8.15;;;;;;;15.52;100.00;101633.19;5262964;28;20475;-68
2023/06/08 00:52:12;;;;;;;16.15;7.50;;;;;;;15.49;100.00;101628.91;5269937;28;20059;-68
2023/06/08 00:54:48;;;;;;;15.65;8.43;;;;;;;15.44;100.00;101633.84;5270792;28;20021;-68
2023/06/08 00:57:20;;;;;;;15.68;8.18;;;;;;;15.35;100.00;101629.22;5266953;28;20063;-68
2023/06/08 00:59:52;;;;;;;15.13;7.72;;;;;;;15.36;100.00;101630.91;5268674;28;20029;-68
2023/06/08 01:02:24;;;;;;;12.48;7.75;;;;;;;15.39;100.00;101630.66;5268809;28;20036;-68
2023/06/08 01:04:56;;;;;;;18.23;8.15;;;;;;;15.33;100.00;101617.75;5267785;28;20029;-68
2023/06/08 01:07:36;;;;;;;18.77;7.88;;;;;;;15.28;100.00;101619.00;5269514;28;20449;-68
2023/06/08 01:10:15;;;;;;;15.40;8.00;;;;;;;15.27;100.00;101616.44;5266806;28;20032;-68
2023/06/08 01:13:03;;;;;;;17.65;8.63;;;;;;;15.29;100.00;101622.53;5268579;28;20020;-68
2023/06/08 01:15:42;;;;;;;17.48;8.55;;;;;;;15.24;100.00;101632.81;5269075;28;20032;-69
2023/06/08 01:18:17;;;;;;;14.50;7.82;;;;;;;15.20;100.00;101625.97;5267283;28;20039;-68
2023/06/08 01:21:33;;;;;;;16.13;8.68;;;;;;;15.27;100.00;101624.50;5266370;28;20105;-68
2023/06/08 01:24:15;;;;;;;19.92;8.77;;;;;;;15.21;100.00;101616.94;5267296;28;20035;-68
2023/06/08 01:26:49;;;;;;;18.63;8.30;;;;;;;15.16;100.00;101621.84;5266651;28;20029;-68
2023/06/08 01:29:21;;;;;;;15.93;7.95;;;;;;;15.10;100.00;101612.47;5266135;28;20417;-69
2023/06/08 01:31:54;;;;;;;14.13;8.10;;;;;;;15.06;100.00;101614.56;5267651;28;20020;-68
2023/06/08 01:34:26;;;;;;;17.50;9.27;;;;;;;15.07;100.00;101618.09;5267714;28;20024;-69
2023/06/08 01:37:12;;;;;;;16.98;7.65;;;;;;;15.02;100.00;101607.72;5264847;28;20035;-68
2023/06/08 01:40:12;;;;;;;15.50;8.70;;;;;;;14.97;100.00;101618.00;5265549;28;20028;-69
2023/06/08 01:42:47;;;;;;;13.82;8.52;;;;;;;14.89;100.00;101620.47;5267460;28;20041;-68
2023/06/08 01:45:21;;;;;;;18.40;9.68;;;;;;;14.92;100.00;101616.66;5269717;28;20036;-68
2023/06/08 01:47:56;;;;;;;;;;;;;;;15.03;100.00;101617.50;5269274;28;20028;-69
2023/06/08 01:50:28;;;;;;;14.40;8.43;;;;;;;14.82;100.00;101612.06;5266546;28;19912;-69
2023/06/08 01:53:01;;;;;;;15.93;8.25;;;;;;;14.76;100.00;101619.78;5267674;28;20078;-68
2023/06/08 01:55:32;;;;;;;18.23;9.15;;;;;;;14.69;100.00;101606.84;5266919;28;20028;-68
2023/06/08 01:58:03;;;;;;;20.05;8.95;;;;;;;14.62;100.00;101602.94;5268090;28;20375;-68
2023/06/08 02:00:35;;;;;;;17.25;9.00;;;;;;;14.61;100.00;101593.19;5269208;28;20068;-69
2023/06/08 02:03:06;;;;;;;17.20;9.02;;;;;;;14.55;100.00;101596.34;5266261;28;20620;-68
2023/06/08 02:05:38;;;;;;;16.13;9.10;;;;;;;14.48;100.00;101609.41;5267358;28;20028;-69
2023/06/08 02:08:09;;;;;;;13.48;8.82;;;;;;;14.45;100.00;101606.13;5264857;28;20136;-69
2023/06/08 02:10:41;;;;;;;16.00;9.18;;;;;;;14.38;100.00;101605.78;5266970;28;20020;-69
2023/06/08 02:13:12;;;;;;;17.38;8.25;;;;;;;14.38;100.00;101602.22;5269501;28;20067;-71
2023/06/08 02:15:43;;;;;;;16.77;9.63;;;;;;;14.41;100.00;101610.88;5264911;28;20031;-69
2023/06/08 02:18:15;;;;;;;16.08;8.95;;;;;;;14.36;100.00;101618.44;5264756;28;20024;-67
2023/06/08 02:20:46;;;;;;;19.23;9.70;;;;;;;14.26;100.00;101612.97;5269146;28;20032;-67
2023/06/08 02:23:18;;;;;;;17.98;9.85;;;;;;;14.24;100.00;101609.53;5267388;28;20036;-67
2023/06/08 02:25:50;;;;;;;16.52;9.75;;;;;;;14.20;100.00;101613.44;5266492;28;20029;-67
2023/06/08 02:28:22;;;;;;;17.67;9.70;;;;;;;14.17;100.00;101613.72;5266066;28;20114;-67
2023/06/08 02:30:53;;;;;;;17.15;9.43;;;;;;;14.12;100.00;101613.22;5267417;28;20036;-67
2023/06/08 02:33:24;;;;;;;17.08;9.63;;;;;;;14.18;100.00;101614.56;5266052;28;20024;-67
2023/06/08 02:35:56;;;;;;;14.23;9.48;;;;;;;14.07;100.00;101618.94;5263801;28;21138;-67
2023/06/08 02:38:28;;;;;;;17.98;9.93;;;;;;;14.02;100.00;101609.56;5264390;28;20085;-67
2023/06/08 02:41:00;;;;;;;15.48;9.88;;;;;;;13.98;100.00;101614.31;5264114;28;20456;-67
2023/06/08 02:43:31;;;;;;;16.83;9.45;;;;;;;13.92;100.00;101610.28;5268348;28;20367;-66
2023/06/08 02:46:02;;;;;;;16.25;10.02;;;;;;;13.88;100.00;101614.19;5266672;28;20736;-66
2023/06/08 02:48:34;;;;;;;19.08;10.68;;;;;;;13.81;100.00;101612.94;5268263;28;21435;-66
2023/06/08 02:51:06;;;;;;;16.52;10.05;;;;;;;13.77;100.00;101608.81;5263799;28;20055;-67
2023/06/08 02:53:37;;;;;;;19.58;10.75;;;;;;;13.72;100.00;101605.63;5269053;28;20040;-67
2023/06/08 02:56:09;;;;;;;17.15;10.35;;;;;;;13.64;100.00;101600.84;5266195;28;20441;-67
2023/06/08 02:58:46;;;;;;;21.15;11.25;;;;;;;13.64;100.00;101610.72;5268007;28;20440;-67
2023/06/08 03:01:18;;;;;;;17.45;10.02;;;;;;;13.59;100.00;101610.22;5264607;28;20028;-67
2023/06/08 03:03:53;;;;;;;21.25;10.63;;;;;;;13.55;100.00;101611.44;5265840;28;20032;-68
2023/06/08 03:06:26;;;;;;;19.25;10.18;;;;;;;13.48;100.00;101606.53;5267621;28;20144;-67
2023/06/08 03:08:58;;;;;;;19.30;10.50;;;;;;;13.46;100.00;101607.63;5262565;28;20028;-67
2023/06/08 03:11:29;;;;;;;18.48;10.50;;;;;;;13.47;100.00;101603.97;5266021;28;20058;-67
2023/06/08 03:14:01;;;;;;;18.25;10.25;;;;;;;13.45;100.00;101592.50;5267615;28;20028;-67
2023/06/08 03:16:33;;;;;;;21.38;11.30;;;;;;;13.45;100.00;101600.56;5264942;28;20067;-66
2023/06/08 03:19:04;;;;;;;19.27;10.35;;;;;;;13.33;100.00;101597.00;5263953;28;20036;-67
2023/06/08 03:21:36;;;;;;;24.75;11.68;;;;;;;13.30;100.00;101591.84;5265422;28;20501;-66
2023/06/08 03:24:11;;;;;;;19.30;10.63;;;;;;;13.29;100.00;101596.34;5267990;28;20021;-67
2023/06/08 03:26:42;;;;;;;20.85;10.25;;;;;;;13.29;100.00;101600.84;5262209;28;20028;-66
2023/06/08 03:29:13;;;;;;;18.77;11.15;;;;;;;13.27;100.00;101608.13;5259037;28;20415;-67
2023/06/08 03:31:45;;;;;;;18.00;10.50;;;;;;;13.22;100.00;101611.16;5259905;28;20386;-66
2023/06/08 03:34:17;;;;;;;21.30;10.65;;;;;;;13.22;100.00;101607.63;5265670;28;20422;-66
2023/06/08 03:36:48;;;;;;;18.92;10.80;;;;;;;13.18;100.00;101612.38;5266805;28;20044;-67
2023/06/08 03:39:20;;;;;;;22.58;11.18;;;;;;;13.23;100.00;101602.16;5265252;28;20025;-67
2023/06/08 03:41:51;;;;;;;18.45;10.35;;;;;;;13.13;100.00;101612.72;5269726;28;20140;-66
2023/06/08 03:44:23;;;;;;;20.92;11.18;;;;;;;13.17;100.00;101610.66;5269723;28;20119;-66
2023/06/08 03:46:54;;;;;;;21.52;11.02;;;;;;;13.12;100.00;101612.84;5270686;28;20028;-66
2023/06/08 03:49:26;;;;;;;18.35;11.13;;;;;;;13.11;100.00;101605.75;5269666;28;20016;-67
2023/06/08 03:51:57;;;;;;;24.98;12.27;;;;;;;13.08;100.00;101606.84;5268232;28;20033;-66
2023/06/08 03:54:29;;;;;;;17.08;10.13;;;;;;;13.06;100.00;101614.16;5270039;28;20131;-66
2023/06/08 03:57:00;;;;;;;21.10;11.15;;;;;;;13.05;100.00;101603.53;5268135;28;20032;-66
2023/06/08 03:59:31;;;;;;;18.52;10.63;;;;;;;13.05;100.00;101609.75;5269854;28;20020;-66
2023/06/08 04:02:03;;;;;;;18.98;11.20;;;;;;;13.13;100.00;101607.38;5267333;28;20047;-66
2023/06/08 04:04:35;;;;;;;19.45;10.20;;;;;;;13.04;100.00;101608.06;5268827;28;20585;-67
2023/06/08 04:07:06;;;;;;;21.83;12.30;;;;;;;13.05;100.00;101609.75;5271720;28;20543;-66
2023/06/08 04:09:38;;;;;;;22.95;11.27;;;;;;;13.05;100.00;101599.03;5267972;28;20024;-66
2023/06/08 04:12:10;;;;;;;21.77;10.98;;;;;;;13.04;100.00;101609.84;5267094;28;20477;-67
2023/06/08 04:14:41;;;;;;;21.10;11.93;;;;;;;13.05;100.00;101601.72;5270606;28;20107;-67
2023/06/08 04:17:12;;;;;;;18.08;11.02;;;;;;;12.98;100.00;101605.81;5267937;28;20470;-66
2023/06/08 04:19:44;;;;;;;22.95;12.07;;;;;;;12.98;100.00;101610.31;5266389;28;20052;-66
2023/06/08 04:22:15;;;;;;;21.83;11.45;;;;;;;12.97;100.00;101600.59;5271583;28;20582;-66
2023/06/08 04:24:47;;;;;;;22.77;10.80;;;;;;;12.97;100.00;101598.75;5274191;28;20046;-67
2023/06/08 04:27:19;;;;;;;20.23;11.43;;;;;;;12.99;100.00;101604.00;5274961;28;20029;-66
2023/06/08 04:29:52;;;;;;;20.90;12.48;;;;;;;12.97;100.00;101601.44;5274073;28;20024;-66
2023/06/08 04:32:23;;;;;;;17.70;12.25;;;;;;;12.97;100.00;101604.13;5276664;28;20465;-66
2023/06/08 04:34:55;;;;;;;19.90;12.30;;;;;;;13.01;100.00;101610.09;5269139;28;20609;-67
2023/06/08 04:37:27;;;;;;;20.27;11.65;;;;;;;12.98;100.00;101602.28;5268185;28;20021;-66
2023/06/08 04:39:58;;;;;;;16.83;10.63;;;;;;;12.94;100.00;101601.66;5266825;28;20036;-67
2023/06/08 04:42:32;;;;;;;23.77;12.73;;;;;;;12.97;100.00;101600.59;5271859;28;20489;-66
2023/06/08 04:45:04;;;;;;;26.20;12.30;;;;;;;12.91;100.00;101593.88;5273391;28;20047;-66
2023/06/08 04:47:35;;;;;;;19.83;12.40;;;;;;;12.93;100.00;101592.78;5273418;28;20090;-66
2023/06/08 04:50:07;;;;;;;21.45;11.77;;;;;;;13.00;100.00;101595.88;5273933;28;20027;-67
2023/06/08 04:52:41;;;;;;;19.42;12.27;;;;;;;12.98;100.00;101591.56;5274882;28;20047;-66
2023/06/08 04:55:13;;;;;;;21.88;12.27;;;;;;;13.02;100.00;101595.72;5278444;28;20479;-66
2023/06/08 04:57:44;;;;;;;21.13;11.68;;;;;;;13.02;100.00;101599.28;5271065;28;20074;-66
2023/06/08 05:00:18;;;;;;;24.75;13.07;;;;;;;13.06;100.00;101600.75;5271035;28;20470;-66
2023/06/08 05:02:49;;;;;;;19.35;12.38;;;;;;;13.10;100.00;101596.88;5272932;28;20064;-67
2023/06/08 05:05:21;;;;;;;18.88;12.55;;;;;;;13.07;100.00;101605.13;5275687;28;20103;-66
2023/06/08 05:07:52;;;;;;;21.77;12.40;;;;;;;13.06;100.00;101599.88;5269493;28;20056;-66
2023/06/08 05:10:24;;;;;;;17.48;11.55;;;;;;;13.07;100.00;101593.56;5275096;28;20021;-66
2023/06/08 05:12:56;;;;;;;22.48;12.15;;;;;;;13.05;100.00;101593.66;5271427;28;20679;-67
2023/06/08 05:15:30;;;;;;;25.75;13.73;;;;;;;13.13;100.00;101590.41;5270730;28;20052;-66
2023/06/08 05:18:02;;;;;;;20.80;12.95;;;;;;;13.14;100.00;101594.81;5268342;28;20167;-67
2023/06/08 05:20:33;;;;;;;19.23;12.63;;;;;;;13.14;100.00;101587.63;5268550;28;20021;-67
2023/06/08 05:23:04;;;;;;;16.95;12.00;;;;;;;13.16;100.00;101589.34;5271239;28;20403;-66
2023/06/08 05:25:37;;;;;;;18.90;13.07;;;;;;;13.21;100.00;101587.16;5266780;28;20055;-67
2023/06/08 05:28:09;;;;;;;24.13;12.50;;;;;;;13.26;100.00;101587.66;5267666;28;20036;-69
2023/06/08 05:30:40;;;;;;;19.48;12.38;;;;;;;13.34;100.00;101588.81;5270295;28;20058;-67
2023/06/08 05:33:12;;;;;;;22.15;12.50;;;;;;;13.36;100.00;101586.03;5267434;28;20032;-67
2023/06/08 05:35:43;;;;;;;25.00;13.13;;;;;;;13.41;100.00;101586.53;5268925;28;20040;-67
2023/06/08 05:38:15;;;;;;;18.85;11.98;;;;;;;13.41;100.00;101583.84;5264845;28;20028;-66
2023/06/08 05:40:46;;;;;;;20.05;12.18;;;;;;;13.40;100.00;101584.81;5270449;28;20510;-67
2023/06/08 05:43:18;;;;;;;18.02;12.00;;;;;;;13.46;100.00;101584.38;5268629;28;20039;-67
2023/06/08 05:45:49;;;;;;;19.77;12.70;;;;;;;13.46;100.00;101583.47;5267831;28;20035;-67
2023/06/08 05:48:20;;;;;;;22.08;12.38;;;;;;;13.55;100.00;101576.56;5270662;28;20020;-67
2023/06/08 05:50:52;;;;;;;19.48;11.93;;;;;;;13.70;100.00;101583.44;5269564;28;20020;-67
2023/06/08 05:53:23;;;;;;;23.63;13.55;;;;;;;13.64;100.00;101575.88;5267059;28;20028;-67
2023/06/08 05:55:55;;;;;;;19.30;12.32;;;;;;;13.65;100.00;101574.88;5268889;28;20401;-66
2023/06/08 05:58:26;;;;;;;19.90;11.82;;;;;;;13.68;100.00;101575.50;5268080;28;20087;-67
2023/06/08 06:00:59;;;;;;;22.58;13.07;;;;;;;13.66;100.00;101576.59;5267101;28;20541;-67
2023/06/08 06:03:31;;;;;;;19.88;13.48;;;;;;;13.82;100.00;101581.59;5270492;28;20024;-67
2023/06/08 06:06:03;;;;;;;19.88;13.50;;;;;;;13.81;100.00;101579.91;5267860;28;20107;-66
2023/06/08 06:08:34;;;;;;;19.45;13.82;;;;;;;13.91;100.00;101580.88;5268760;28;20025;-67
2023/06/08 06:11:05;;;;;;;21.17;13.43;;;;;;;13.90;100.00;101577.34;5268306;28;20106;-67
2023/06/08 06:13:37;;;;;;;20.42;12.98;;;;;;;13.96;100.00;101572.47;5269950;28;20021;-66
2023/06/08 06:16:08;;;;;;;19.88;12.70;;;;;;;14.08;100.00;101576.88;5270378;28;20036;-67
2023/06/08 06:18:40;;;;;;;25.95;14.05;;;;;;;14.16;100.00;101581.63;5269868;28;20554;-67
2023/06/08 06:21:11;;;;;;;23.30;13.20;;;;;;;14.22;100.00;101579.28;5270754;28;20024;-67
2023/06/08 06:23:44;;;;;;;21.27;13.50;;;;;;;14.32;100.00;101576.72;5273856;28;20020;-66
2023/06/08 06:26:16;;;;;;;28.40;13.97;;;;;;;14.40;100.00;101573.41;5273248;28;20036;-67
2023/06/08 06:28:47;;;;;;;23.73;13.40;;;;;;;14.46;100.00;101576.47;5271484;28;20178;-67
2023/06/08 06:31:18;;;;;;;21.30;13.70;;;;;;;14.54;100.00;101575.84;5267643;28;20994;-67
2023/06/08 06:33:50;;;;;;;20.33;13.70;;;;;;;14.61;100.00;101582.47;5264647;28;20044;-68
2023/06/08 06:36:23;;;;;;;24.42;14.15;;;;;;;14.67;100.00;101576.56;5259667;28;20383;-67
2023/06/08 06:38:54;;;;;;;18.63;13.82;;;;;;;14.75;100.00;101592.06;5266934;28;20031;-67
2023/06/08 06:41:26;;;;;;;25.73;14.30;;;;;;;14.80;100.00;101581.78;5266710;28;20055;-67
2023/06/08 06:43:58;;;;;;;21.80;13.98;;;;;;;14.88;100.00;101583.81;5269671;28;20040;-67
2023/06/08 06:46:29;;;;;;;22.60;13.35;;;;;;;14.93;100.00;101589.69;5270404;28;20036;-68
2023/06/08 06:49:01;;;;;;;22.85;12.88;;;;;;;14.95;100.00;101581.50;5266129;28;20028;-67
2023/06/08 06:51:32;;;;;;;18.83;12.73;;;;;;;15.08;100.00;101590.22;5270287;28;20048;-66
2023/06/08 06:54:04;;;;;;;24.23;12.85;;;;;;;15.27;100.00;101587.69;5268298;28;20056;-66
2023/06/08 06:56:35;;;;;;;24.27;13.70;;;;;;;15.29;100.00;101582.19;5269090;28;20421;-66
2023/06/08 06:59:07;;;;;;;19.58;13.82;;;;;;;15.41;100.00;101583.81;5267481;28;20039;-66
2023/06/08 07:01:38;;;;;;;22.00;13.63;;;;;;;15.42;100.00;101588.25;5268412;28;20135;-66
2023/06/08 07:04:10;;;;;;;19.17;13.38;;;;;;;15.58;100.00;101589.63;5272493;28;20032;-66
2023/06/08 07:06:42;;;;;;;22.48;14.68;;;;;;;15.66;100.00;101585.25;5268905;28;20410;-67
2023/06/08 07:09:15;;;;;;;20.08;14.38;;;;;;;15.80;100.00;101583.25;5269560;28;20032;-66
2023/06/08 07:11:48;;;;;;;24.00;15.48;;;;;;;15.83;100.00;101594.59;5269960;28;20575;-66
2023/06/08 07:14:19;;;;;;;21.08;14.27;;;;;;;15.93;100.00;101588.44;5269906;28;20044;-66
2023/06/08 07:16:51;;;;;;;22.55;14.30;;;;;;;16.02;100.00;101593.00;5273930;28;20399;-66
2023/06/08 07:19:22;;;;;;;16.08;13.85;;;;;;;16.08;100.00;101589.78;5267482;28;20028;-66
2023/06/08 07:21:54;;;;;;;24.92;14.20;;;;;;;16.21;100.00;101593.09;5274395;28;20517;-67
2023/06/08 07:24:25;;;;;;;24.92;14.32;;;;;;;16.22;100.00;101588.53;5272281;28;20198;-66
2023/06/08 07:26:57;;;;;;;20.75;14.13;;;;;;;16.35;100.00;101591.84;5277143;28;20111;-66
2023/06/08 07:29:28;;;;;;;22.05;14.80;;;;;;;16.41;100.00;101585.91;5277016;28;20025;-66
2023/06/08 07:31:59;;;;;;;19.98;15.10;;;;;;;16.46;100.00;101583.66;5272910;28;20032;-66
2023/06/08 07:34:31;;;;;;;20.90;13.35;;;;;;;16.58;100.00;101586.25;5273541;28;20028;-66
2023/06/08 07:37:02;;;;;;;23.02;13.95;;;;;;;16.68;100.00;101584.41;5272704;28;20411;-67
2023/06/08 07:39:34;;;;;;;22.83;14.50;;;;;;;16.77;100.00;101580.88;5272124;28;20036;-67
2023/06/08 07:42:06;;;;;;;20.50;15.32;;;;;;;16.82;100.00;101578.66;5278064;28;20422;-66
2023/06/08 07:44:37;;;;;;;19.92;14.32;;;;;;;16.92;100.00;101580.53;5276193;28;20028;-66
2023/06/08 07:47:08;;;;;;;20.20;14.05;;;;;;;17.07;100.00;101572.84;5276563;28;20568;-67
2023/06/08 07:49:40;;;;;;;20.98;14.20;;;;;;;17.15;100.00;101578.41;5276293;28;20032;-67
2023/06/08 07:52:11;;;;;;;21.92;14.25;;;;;;;17.20;100.00;101570.72;5276525;28;20029;-67
2023/06/08 07:54:42;;;;;;;24.50;15.55;;;;;;;17.30;100.00;101568.88;5274537;28;20081;-67
2023/06/08 07:57:14;;;;;;;19.85;14.20;;;;;;;17.37;100.00;101571.84;5275657;28;20032;-66
2023/06/08 07:59:45;;;;;;;20.77;14.23;;;;;;;17.62;100.00;101578.47;5274557;28;20032;-67
2023/06/08 08:02:17;;;;;;;21.27;13.85;;;;;;;17.64;100.00;101569.25;5275408;28;20070;-66
2023/06/08 08:04:49;;;;;;;22.02;14.35;;;;;;;17.78;100.00;101573.31;5275627;28;20403;-67
2023/06/08 08:07:20;;;;;;;22.33;13.98;;;;;;;17.87;100.00;101570.75;5272695;28;20048;-66
2023/06/08 08:09:52;;;;;;;20.30;14.30;;;;;;;17.94;100.00;101569.19;5276081;28;20378;-67
2023/06/08 08:12:23;;;;;;;22.85;13.77;;;;;;;18.05;100.00;101569.00;5277147;28;20458;-66
2023/06/08 08:14:54;;;;;;;22.88;13.85;;;;;;;18.09;100.00;101572.25;5272161;28;20032;-66
2023/06/08 08:17:26;;;;;;;20.17;13.77;;;;;;;18.18;100.00;101572.19;5276180;28;20060;-67
2023/06/08 08:19:57;;;;;;;19.95;13.27;;;;;;;18.35;100.00;101570.56;5276072;28;20037;-66
2023/06/08 08:22:28;;;;;;;21.40;13.40;;;;;;;18.36;100.00;101560.59;5275361;28;20032;-67
2023/06/08 08:25:00;;;;;;;16.95;12.25;;;;;;;18.55;100.00;101568.56;5274740;28;20036;-66
2023/06/08 08:27:31;;;;;;;21.40;12.77;;;;;;;18.70;100.00;101568.91;5274371;28;20753;-66
2023/06/08 08:30:03;;;;;;;19.50;13.23;;;;;;;18.76;100.00;101568.28;5276593;28;20374;-67
2023/06/08 08:32:34;;;;;;;18.90;12.10;;;;;;;19.03;100.00;101563.00;5274952;28;20041;-66
2023/06/08 08:35:08;;;;;;;20.45;13.15;;;;;;;18.95;100.00;101559.22;5273314;28;20106;-66
2023/06/08 08:37:42;;;;;;;21.63;12.80;;;;;;;19.20;100.00;101571.09;5275624;28;20390;-66
2023/06/08 08:40:13;;;;;;;15.98;12.63;;;;;;;19.18;100.00;101550.63;5275182;28;20078;-66
2023/06/08 08:42:53;;;;;;;23.60;13.40;;;;;;;19.28;100.00;101566.78;5274102;28;20036;-66
2023/06/08 08:45:28;;;;;;;20.73;13.10;;;;;;;19.48;100.00;101562.84;5274864;28;20058;-66
2023/06/08 08:48:01;;;;;;;19.20;12.35;;;;;;;19.54;100.00;101566.78;5275848;28;20028;-67
2023/06/08 08:50:34;;;;;;;16.93;12.17;;;;;;;19.61;100.00;101565.13;5274684;28;20081;-67
2023/06/08 08:53:06;;;;;;;21.48;12.70;;;;;;;19.75;100.00;101559.19;5272806;28;20290;-66
2023/06/08 08:55:40;;;;;;;17.20;12.48;;;;;;;19.75;100.00;101553.75;5272873;28;20391;-66
2023/06/08 08:58:13;;;;;;;14.77;11.43;;;;;;;20.03;100.00;101558.97;5273454;28;20016;-66
2023/06/08 09:00:50;;;;;;;18.80;12.57;;;;;;;19.88;100.00;101549.75;5273318;28;20454;-66
2023/06/08 09:03:22;;;;;;;17.98;12.65;;;;;;;20.09;100.00;101549.34;5274634;28;20031;-67
2023/06/08 09:05:53;;;;;;;15.77;11.25;;;;;;;20.06;100.00;101555.97;5272708;28;20527;-67
2023/06/08 09:08:25;;;;;;;18.45;11.15;;;;;;;20.13;100.00;101554.28;5273672;28;20078;-67
2023/06/08 09:11:03;;;;;;;15.27;10.93;;;;;;;20.26;100.00;101552.97;5264118;28;20113;-66
2023/06/08 09:13:36;;;;;;;16.35;11.25;;;;;;;20.37;100.00;101556.25;5274657;28;20081;-66
2023/06/08 09:16:09;;;;;;;16.27;11.13;;;;;;;20.38;100.00;101554.38;5271437;28;20044;-66
2023/06/08 09:18:41;;;;;;;15.43;11.35;;;;;;;20.51;100.00;101548.47;5273109;28;20040;-66
2023/06/08 09:21:24;;;;;;;17.30;11.40;;;;;;;20.59;100.00;101547.66;5275750;28;20256;-67
2023/06/08 09:24:22;;;;;;;15.82;10.50;;;;;;;20.81;100.00;101549.75;5272257;28;20032;-66
2023/06/08 09:26:56;;;;;;;12.75;10.30;;;;;;;20.71;100.00;101540.91;5272168;28;20131;-67
2023/06/08 09:29:40;;;;;;;15.02;9.82;;;;;;;20.98;100.00;101536.19;5274634;28;20028;-66
2023/06/08 09:32:12;;;;;;;12.07;9.32;;;;;;;20.87;100.00;101537.41;5273592;28;20382;-66
2023/06/08 09:35:01;;;;;;;14.30;10.38;;;;;;;21.15;100.00;101540.59;5273274;28;20479;-67
2023/06/08 09:37:37;;;;;;;13.02;8.57;;;;;;;21.29;100.00;101529.06;5274936;28;20028;-66
2023/06/08 09:40:18;;;;;;;13.38;9.07;;;;;;;21.41;100.00;101536.88;5271603;28;20056;-67
2023/06/08 09:42:53;;;;;;;16.23;9.70;;;;;;;21.33;100.00;101532.31;5274360;28;20032;-67
2023/06/08 09:45:25;;;;;;;12.65;9.23;;;;;;;21.47;100.00;101522.63;5272038;28;20425;-66
2023/06/08 09:48:13;;;;;;;14.40;9.10;;;;;;;21.65;100.00;101531.44;5273443;28;20482;-66
2023/06/08 09:50:45;;;;;;;13.63;8.75;;;;;;;21.79;100.00;101537.16;5273093;28;20031;-66
2023/06/08 09:53:17;;;;;;;13.05;8.95;;;;;;;21.95;100.00;101536.25;5272096;28;20028;-66
2023/06/08 09:55:52;;;;;;;13.95;9.13;;;;;;;21.89;100.00;101525.06;5271828;28;20036;-66
2023/06/08 09:58:25;;;;;;;15.07;10.63;;;;;;;21.81;100.00;101521.53;5272190;28;20028;-66
2023/06/08 10:01:02;;;;;;;13.40;9.95;;;;;;;21.95;100.00;101520.78;5271873;28;20493;-66
2023/06/08 10:03:47;;;;;;;18.15;9.55;;;;;;;22.17;100.00;101523.75;5273462;28;20025;-66
2023/06/08 10:06:20;;;;;;;13.00;9.27;;;;;;;22.16;100.00;101519.34;5274338;28;20056;-66
2023/06/08 10:08:55;;;;;;;12.10;7.50;;;;;;;22.32;100.00;101522.00;5272463;28;20071;-66
2023/06/08 10:11:28;;;;;;;9.73;6.68;;;;;;;22.28;100.00;101518.81;5272546;28;20292;-66
2023/06/08 10:14:00;;;;;;;11.65;7.07;;;;;;;22.46;100.00;101521.25;5270377;28;20020;-66
2023/06/08 10:16:32;;;;;;;11.48;7.38;;;;;;;22.43;100.00;101510.72;5270070;28;20040;-66
2023/06/08 10:19:04;;;;;;;11.63;8.50;;;;;;;22.65;100.00;101508.22;5269082;28;20027;-66
2023/06/08 10:21:37;;;;;;;12.57;7.85;;;;;;;22.68;100.00;101497.81;5269333;28;20991;-66
2023/06/08 10:24:09;;;;;;;9.35;6.28;;;;;;;22.64;100.00;101504.63;5266611;28;20043;-66
2023/06/08 10:26:41;;;;;;;8.00;6.45;;;;;;;22.84;100.00;101507.75;5272012;28;20123;-66
2023/06/08 10:29:12;;;;;;;8.82;6.30;;;;;;;22.85;100.00;101503.13;5269170;28;20110;-66
2023/06/08 10:31:47;;;;;;;9.52;5.50;;;;;;;22.94;100.00;101495.75;5270367;28;20675;-68
2023/06/08 10:34:19;;;;;;;7.78;5.78;;;;;;;22.89;100.00;101490.84;5270097;28;20488;-66
2023/06/08 10:36:50;;;;;;;7.90;5.47;;;;;;;22.92;100.00;101489.66;5269779;28;20068;-66
2023/06/08 10:39:22;;;;;;;9.45;5.07;;;;;;;23.00;100.00;101498.59;5273006;28;20036;-67
2023/06/08 10:41:59;;;;;;;7.05;4.75;;;;;;;23.08;100.00;101486.81;5270392;28;20036;-66
2023/06/08 10:44:33;;;;;;;10.20;5.88;;;;;;;23.31;100.00;101491.38;5272339;28;20094;-67
2023/06/08 10:47:05;;;;;;;12.30;6.55;;;;;;;23.25;100.00;101487.50;5271192;28;20127;-67
2023/06/08 10:49:39;;;;;;;10.55;6.13;;;;;;;23.43;100.00;101492.59;5271385;28;20166;-67
2023/06/08 10:52:19;;;;;;;8.25;5.88;;;;;;;23.43;100.00;101482.56;5274039;28;20569;-67
2023/06/08 10:54:55;;;;;;;9.10;5.78;;;;;;;23.38;100.00;101481.44;5275092;28;20368;-66
2023/06/08 10:57:49;;;;;;;10.45;5.50;;;;;;;23.44;100.00;101477.94;5273480;28;20036;-66
2023/06/08 11:00:22;;;;;;;8.32;5.13;;;;;;;23.56;100.00;101484.59;5275782;28;20117;-66
2023/06/08 11:03:04;;;;;;;8.93;6.13;;;;;;;23.47;100.00;101474.81;5274164;28;20035;-67
2023/06/08 11:05:37;;;;;;;9.70;6.07;;;;;;;23.41;100.00;101473.69;5274583;28;20028;-66
2023/06/08 11:08:08;;;;;;;9.15;5.72;;;;;;;23.46;100.00;101464.97;5274894;28;20058;-66
2023/06/08 11:10:40;;;;;;;12.45;6.70;;;;;;;23.44;100.00;101467.88;5278192;28;20615;-66
2023/06/08 11:13:13;;;;;;;9.98;6.57;;;;;;;23.46;100.00;101465.81;5274403;28;20348;-66
2023/06/08 11:15:47;;;;;;;11.63;6.53;;;;;;;23.51;100.00;101469.84;5277356;28;20532;-66
2023/06/08 11:18:20;;;;;;;;;;;;;;;23.65;100.00;101472.59;5274054;28;20446;-66
2023/06/08 11:20:52;;;;;;;11.10;6.35;;;;;;;23.45;100.00;101461.44;5276154;28;19927;-66
2023/06/08 11:23:23;;;;;;;10.35;5.95;;;;;;;23.47;100.00;101463.94;5274453;28;20032;-66
2023/06/08 11:25:54;;;;;;;11.30;5.78;;;;;;;23.44;100.00;101459.72;5275731;28;20033;-66
2023/06/08 11:28:26;;;;;;;9.90;6.53;;;;;;;23.47;100.00;101458.47;5276986;28;20017;-66
2023/06/08 11:30:59;;;;;;;11.85;6.68;;;;;;;23.52;100.00;101450.59;5274998;28;20035;-66
2023/06/08 11:33:33;;;;;;;13.63;7.50;;;;;;;23.45;100.00;101457.84;5277598;28;20378;-66